Time;durP1;ratioP1;P1;durP2;ratioP2;P2;SDS_P1;SDS_P2;PMS_P1;PMS_P2;Temp;Humidity;BMP_temperature;BMP_pressure;BME280_temperature;BME280_humidity;BME280_pressure;Samples;Min_cycle;Max_cycle;Signal;HPM_P1;HPM_P2
2021/07/20 00:01:24;;;;;;;19.08;7.95;;;;;;;;;;5074088;28;20032;-51
2021/07/20 00:03:50;;;;;;;19.08;6.65;;;;;;;;;;5074695;28;20032;-51
2021/07/20 00:06:16;;;;;;;16.20;6.53;;;;;;;;;;5074751;28;20032;-51
2021/07/20 00:08:42;;;;;;;14.75;6.85;;;;;;;;;;5074881;28;20028;-51
2021/07/20 00:11:09;;;;;;;14.40;6.45;;;;;;;;;;5073788;28;20048;-51
2021/07/20 00:13:35;;;;;;;17.67;6.88;;;;;;;;;;5074206;28;20078;-51
2021/07/20 00:16:01;;;;;;;14.70;7.10;;;;;;;;;;5074629;28;20420;-51
2021/07/20 00:18:33;;;;;;;16.98;7.28;;;;;;;;;;5074529;28;20034;-51
2021/07/20 00:20:59;;;;;;;14.15;6.40;;;;;;;;;;5073765;28;20128;-52
2021/07/20 00:23:25;;;;;;;14.15;6.97;;;;;;;;;;5074488;28;20343;-51
2021/07/20 00:25:51;;;;;;;18.73;7.65;;;;;;;;;;5074288;28;20044;-51
2021/07/20 00:28:18;;;;;;;17.60;7.07;;;;;;;;;;5074450;28;20187;-51
2021/07/20 00:30:44;;;;;;;14.73;6.25;;;;;;;;;;5074116;28;20331;-51
2021/07/20 00:33:10;;;;;;;15.27;6.35;;;;;;;;;;5073060;28;20453;-51
2021/07/20 00:35:37;;;;;;;14.75;7.25;;;;;;;;;;5073984;28;20021;-51
2021/07/20 00:38:03;;;;;;;18.60;7.13;;;;;;;;;;5074213;28;20111;-51
2021/07/20 00:40:31;;;;;;;13.73;6.35;;;;;;;;;;5074312;28;20103;-50
2021/07/20 00:42:56;;;;;;;12.23;6.57;;;;;;;;;;5073947;28;20082;-51
2021/07/20 00:45:23;;;;;;;17.80;6.90;;;;;;;;;;5073750;28;20024;-51
2021/07/20 00:47:49;;;;;;;15.93;6.95;;;;;;;;;;5073937;28;20143;-51
2021/07/20 00:50:17;;;;;;;17.92;6.70;;;;;;;;;;5073656;28;20016;-51
2021/07/20 00:52:43;;;;;;;17.95;7.10;;;;;;;;;;5073747;28;20036;-51
2021/07/20 00:55:10;;;;;;;14.52;6.72;;;;;;;;;;5074044;28;20173;-51
2021/07/20 00:57:36;;;;;;;19.23;7.25;;;;;;;;;;5074004;28;20029;-51
2021/07/20 01:00:04;;;;;;;13.63;6.78;;;;;;;;;;5073734;28;20089;-51
2021/07/20 01:02:30;;;;;;;16.73;6.63;;;;;;;;;;5073110;28;20028;-51
2021/07/20 01:04:57;;;;;;;17.98;6.85;;;;;;;;;;5073104;28;20357;-51
2021/07/20 01:07:24;;;;;;;28.98;7.07;;;;;;;;;;5073869;28;20044;-51
2021/07/20 01:09:51;;;;;;;12.80;5.70;;;;;;;;;;5073293;28;20442;-51
2021/07/20 01:12:17;;;;;;;16.33;7.03;;;;;;;;;;5072910;28;20408;-51
2021/07/20 01:14:44;;;;;;;17.98;7.15;;;;;;;;;;5073783;28;20024;-51
2021/07/20 01:17:10;;;;;;;16.35;7.05;;;;;;;;;;5073810;28;20454;-51
2021/07/20 01:19:38;;;;;;;14.45;6.95;;;;;;;;;;5073080;28;20025;-51
2021/07/20 01:22:05;;;;;;;12.85;6.70;;;;;;;;;;5072458;28;20062;-51
2021/07/20 01:24:31;;;;;;;17.48;6.55;;;;;;;;;;5073300;28;20028;-51
2021/07/20 01:26:57;;;;;;;14.68;6.65;;;;;;;;;;5073188;28;20218;-51
2021/07/20 01:29:23;;;;;;;15.25;6.63;;;;;;;;;;5073538;28;20024;-51
2021/07/20 01:31:50;;;;;;;14.48;6.95;;;;;;;;;;5072561;28;20025;-51
2021/07/20 01:34:17;;;;;;;19.13;6.95;;;;;;;;;;5072915;28;20028;-51
2021/07/20 01:36:45;;;;;;;17.00;6.18;;;;;;;;;;5073146;28;20405;-51
2021/07/20 01:39:12;;;;;;;12.32;6.35;;;;;;;;;;5073415;28;20403;-50
2021/07/20 01:41:40;;;;;;;15.65;6.88;;;;;;;;;;5072324;28;20032;-51
2021/07/20 01:44:07;;;;;;;15.00;6.30;;;;;;;;;;5073149;28;20027;-51
2021/07/20 01:46:34;;;;;;;9.35;5.25;;;;;;;;;;5072789;28;20040;-51
2021/07/20 01:49:02;;;;;;;16.58;7.03;;;;;;;;;;5073264;28;20066;-51
2021/07/20 01:51:28;;;;;;;16.98;6.68;;;;;;;;;;5072051;28;20052;-51
2021/07/20 01:53:56;;;;;;;13.35;6.05;;;;;;;;;;5073151;28;20074;-51
2021/07/20 01:56:23;;;;;;;14.93;7.03;;;;;;;;;;5073193;28;20025;-51
2021/07/20 01:58:49;;;;;;;15.73;6.20;;;;;;;;;;5072933;28;20024;-50
2021/07/20 02:01:20;;;;;;;16.52;7.03;;;;;;;;;;5071631;28;20013;-50
2021/07/20 02:04:10;;;;;;;14.75;6.13;;;;;;;;;;5072843;28;20036;-51
2021/07/20 02:09:23;;;;;;;11.20;6.18;;;;;;;;;;5073226;28;20040;-50
2021/07/20 02:11:50;;;;;;;15.23;5.57;;;;;;;;;;5072042;28;20032;-51
2021/07/20 02:14:17;;;;;;;18.85;5.38;;;;;;;;;;5072746;28;20028;-51
2021/07/20 02:16:53;;;;;;;23.13;6.45;;;;;;;;;;5073119;28;20024;-51
2021/07/20 02:19:19;;;;;;;11.27;6.03;;;;;;;;;;5089100;28;20020;-50
2021/07/20 02:21:50;;;;;;;11.10;5.63;;;;;;;;;;5096267;28;20039;-51
2021/07/20 02:24:17;;;;;;;15.05;5.70;;;;;;;;;;5097265;28;20038;-51
2021/07/20 02:26:43;;;;;;;14.82;6.10;;;;;;;;;;5096841;28;20480;-51
2021/07/20 02:29:10;;;;;;;10.93;5.93;;;;;;;;;;5097282;28;20020;-51
2021/07/20 02:31:37;;;;;;;11.73;5.25;;;;;;;;;;5096473;28;20020;-51
2021/07/20 02:34:03;;;;;;;16.23;6.50;;;;;;;;;;5096579;28;20028;-51
2021/07/20 02:36:30;;;;;;;12.75;6.20;;;;;;;;;;5096865;28;20032;-51
2021/07/20 02:38:57;;;;;;;14.57;5.32;;;;;;;;;;5096436;28;20062;-51
2021/07/20 02:41:24;;;;;;;11.63;5.97;;;;;;;;;;5096273;28;20020;-51
2021/07/20 02:43:51;;;;;;;17.70;5.88;;;;;;;;;;5096397;28;20027;-51
2021/07/20 02:46:17;;;;;;;14.23;6.07;;;;;;;;;;5095899;28;20043;-51
2021/07/20 02:48:43;;;;;;;15.60;5.43;;;;;;;;;;5096714;28;20139;-51
2021/07/20 02:51:10;;;;;;;13.18;5.50;;;;;;;;;;5082812;28;20094;-51
2021/07/20 02:53:37;;;;;;;15.63;6.38;;;;;;;;;;5076475;28;20458;-51
2021/07/20 02:56:05;;;;;;;14.00;6.45;;;;;;;;;;5076302;28;20096;-51
2021/07/20 02:58:31;;;;;;;9.32;4.95;;;;;;;;;;5076203;28;20032;-50
2021/07/20 03:00:57;;;;;;;16.90;6.00;;;;;;;;;;5074845;28;20111;-51
2021/07/20 03:03:23;;;;;;;15.95;5.63;;;;;;;;;;5076104;28;20415;-51
2021/07/20 03:05:49;;;;;;;13.45;5.97;;;;;;;;;;5076318;28;20458;-51
2021/07/20 03:08:16;;;;;;;12.52;4.70;;;;;;;;;;5075895;28;20055;-51
2021/07/20 03:10:43;;;;;;;10.00;5.78;;;;;;;;;;5075218;28;20036;-51
2021/07/20 03:13:10;;;;;;;13.57;5.60;;;;;;;;;;5075913;28;20025;-51
2021/07/20 03:15:37;;;;;;;13.15;5.68;;;;;;;;;;5075984;28;20029;-51
2021/07/20 03:18:05;;;;;;;13.07;5.82;;;;;;;;;;5075817;28;20025;-51
2021/07/20 03:20:32;;;;;;;15.00;6.40;;;;;;;;;;5075233;28;20039;-51
2021/07/20 03:22:59;;;;;;;9.07;5.22;;;;;;;;;;5075392;28;20056;-51
2021/07/20 03:25:25;;;;;;;14.07;5.78;;;;;;;;;;5072584;28;20032;-51
2021/07/20 03:27:52;;;;;;;12.13;6.05;;;;;;;;;;5078802;28;20032;-51
2021/07/20 03:30:18;;;;;;;12.30;6.35;;;;;;;;;;5075402;28;20089;-51
2021/07/20 03:32:45;;;;;;;18.33;7.13;;;;;;;;;;5089377;28;20024;-51
2021/07/20 03:35:13;;;;;;;14.07;6.03;;;;;;;;;;5095420;28;20036;-50
2021/07/20 03:37:39;;;;;;;15.52;6.43;;;;;;;;;;5095963;28;20032;-51
2021/07/20 03:40:06;;;;;;;12.63;5.97;;;;;;;;;;5095523;28;20020;-51
2021/07/20 03:42:32;;;;;;;14.98;5.95;;;;;;;;;;5094332;28;20464;-50
2021/07/20 03:44:59;;;;;;;13.15;6.63;;;;;;;;;;5080149;28;20066;-51
2021/07/20 03:47:25;;;;;;;9.57;5.57;;;;;;;;;;5079674;28;20140;-51
2021/07/20 03:49:52;;;;;;;15.80;6.97;;;;;;;;;;5095041;28;20054;-51
2021/07/20 03:52:19;;;;;;;11.70;5.78;;;;;;;;;;5094731;28;20110;-50
2021/07/20 03:54:45;;;;;;;19.85;6.93;;;;;;;;;;5094847;28;20023;-50
2021/07/20 03:57:15;;;;;;;10.02;5.63;;;;;;;;;;5094822;28;20029;-50
2021/07/20 03:59:42;;;;;;;12.43;6.15;;;;;;;;;;5095394;28;20028;-51
2021/07/20 04:02:09;;;;;;;11.93;5.40;;;;;;;;;;5094667;28;20101;-50
2021/07/20 04:04:37;;;;;;;14.43;7.10;;;;;;;;;;5094870;28;20027;-51
2021/07/20 04:07:06;;;;;;;11.63;5.43;;;;;;;;;;5095130;28;20098;-51
2021/07/20 04:09:32;;;;;;;13.02;6.78;;;;;;;;;;5095149;28;20024;-51
2021/07/20 04:11:58;;;;;;;13.43;6.65;;;;;;;;;;5094490;28;20028;-51
2021/07/20 04:14:25;;;;;;;15.70;6.70;;;;;;;;;;5094846;28;20020;-51
2021/07/20 04:16:51;;;;;;;11.52;5.65;;;;;;;;;;5094852;28;20032;-51
2021/07/20 04:19:17;;;;;;;15.23;6.43;;;;;;;;;;5087920;28;20035;-51
2021/07/20 04:21:44;;;;;;;12.80;5.93;;;;;;;;;;5090494;28;20475;-51
2021/07/20 04:24:10;;;;;;;14.82;5.65;;;;;;;;;;5083047;28;20102;-51
2021/07/20 04:26:37;;;;;;;18.15;5.97;;;;;;;;;;5087034;28;20039;-51
2021/07/20 04:29:03;;;;;;;12.45;5.85;;;;;;;;;;5094608;28;20024;-51
2021/07/20 04:31:30;;;;;;;11.18;5.65;;;;;;;;;;5093278;28;20028;-51
2021/07/20 04:33:56;;;;;;;10.93;5.15;;;;;;;;;;5094223;28;20031;-51
2021/07/20 04:36:23;;;;;;;11.57;5.28;;;;;;;;;;5075921;28;20020;-51
2021/07/20 04:38:49;;;;;;;9.75;4.72;;;;;;;;;;5075193;28;20029;-51
2021/07/20 04:41:19;;;;;;;14.80;6.53;;;;;;;;;;5072417;28;20442;-51
2021/07/20 04:43:46;;;;;;;20.77;6.10;;;;;;;;;;5074500;28;20025;-51
2021/07/20 04:46:13;;;;;;;12.38;5.18;;;;;;;;;;5073776;28;20431;-51
2021/07/20 04:48:39;;;;;;;13.10;6.20;;;;;;;;;;5074006;28;20055;-51
2021/07/20 04:51:05;;;;;;;12.55;6.03;;;;;;;;;;5072961;28;20107;-51
2021/07/20 04:53:31;;;;;;;20.90;6.57;;;;;;;;;;5073866;28;20505;-51
2021/07/20 04:55:58;;;;;;;13.50;6.45;;;;;;;;;;5073851;28;20020;-51
2021/07/20 04:58:24;;;;;;;18.88;5.95;;;;;;;;;;5074031;28;20458;-51
2021/07/20 05:00:52;;;;;;;14.55;6.57;;;;;;;;;;5073129;28;20484;-51
2021/07/20 05:03:18;;;;;;;12.90;6.07;;;;;;;;;;5074111;28;20052;-51
2021/07/20 05:05:44;;;;;;;16.80;5.85;;;;;;;;;;5073276;28;20036;-51
2021/07/20 05:08:13;;;;;;;12.18;6.88;;;;;;;;;;5073601;28;20036;-51
2021/07/20 05:10:40;;;;;;;13.50;6.35;;;;;;;;;;5072919;28;20079;-51
2021/07/20 05:13:09;;;;;;;14.40;5.75;;;;;;;;;;5076435;28;20069;-51
2021/07/20 05:15:36;;;;;;;16.05;4.75;;;;;;;;;;5076155;28;20032;-51
2021/07/20 05:18:02;;;;;;;14.98;6.25;;;;;;;;;;5073698;28;20025;-51
2021/07/20 05:20:29;;;;;;;14.18;6.18;;;;;;;;;;5072923;28;20024;-52
2021/07/20 05:22:56;;;;;;;13.13;5.70;;;;;;;;;;5072380;28;20043;-51
2021/07/20 05:25:22;;;;;;;13.18;5.80;;;;;;;;;;5073191;28;20048;-52
2021/07/20 05:27:54;;;;;;;12.95;6.20;;;;;;;;;;5073784;28;20113;-52
2021/07/20 05:30:21;;;;;;;20.13;6.45;;;;;;;;;;5073500;28;20047;-52
2021/07/20 05:32:49;;;;;;;11.90;5.63;;;;;;;;;;5071817;28;20522;-52
2021/07/20 05:35:19;;;;;;;12.35;5.85;;;;;;;;;;5071651;28;20024;-52
2021/07/20 05:37:47;;;;;;;14.30;6.05;;;;;;;;;;5072431;28;20028;-51
2021/07/20 05:40:15;;;;;;;12.07;6.15;;;;;;;;;;5073187;28;20515;-52
2021/07/20 05:42:42;;;;;;;16.52;6.57;;;;;;;;;;5072325;28;20039;-51
2021/07/20 05:45:08;;;;;;;14.38;6.47;;;;;;;;;;5073100;28;20040;-51
2021/07/20 05:47:35;;;;;;;9.77;4.82;;;;;;;;;;5073149;28;20086;-52
2021/07/20 05:50:02;;;;;;;12.43;5.40;;;;;;;;;;5073135;28;20020;-51
2021/07/20 05:52:28;;;;;;;16.20;6.25;;;;;;;;;;5069977;28;20048;-52
2021/07/20 05:54:55;;;;;;;13.80;6.22;;;;;;;;;;5073092;28;20024;-52
2021/07/20 05:57:25;;;;;;;11.27;5.22;;;;;;;;;;5072922;28;20028;-52
2021/07/20 05:59:52;;;;;;;12.63;6.05;;;;;;;;;;5073020;28;20024;-52
2021/07/20 06:02:18;;;;;;;14.68;6.30;;;;;;;;;;5071555;28;20059;-51
2021/07/20 06:04:45;;;;;;;17.83;6.47;;;;;;;;;;5073009;28;20374;-52
2021/07/20 06:07:11;;;;;;;12.60;5.90;;;;;;;;;;5072722;28;20047;-51
2021/07/20 06:09:38;;;;;;;13.95;6.65;;;;;;;;;;5072942;28;20023;-51
2021/07/20 06:12:08;;;;;;;15.05;6.53;;;;;;;;;;5071866;28;20066;-51
2021/07/20 06:14:34;;;;;;;;;;;;;;;;;;5073066;28;20024;-52
2021/07/20 06:17:00;;;;;;;10.23;5.50;;;;;;;;;;5072422;28;19915;-51
2021/07/20 06:19:26;;;;;;;16.05;5.97;;;;;;;;;;5072602;28;20327;-52
2021/07/20 06:21:53;;;;;;;13.32;6.38;;;;;;;;;;5071874;28;20044;-51
2021/07/20 06:24:19;;;;;;;14.13;6.20;;;;;;;;;;5072732;28;20020;-51
2021/07/20 06:26:45;;;;;;;19.42;6.47;;;;;;;;;;5072298;28;20043;-52
2021/07/20 06:29:11;;;;;;;13.80;6.68;;;;;;;;;;5072679;28;20314;-51
2021/07/20 06:31:39;;;;;;;17.67;6.88;;;;;;;;;;5071868;28;20036;-52
2021/07/20 06:34:05;;;;;;;14.18;6.38;;;;;;;;;;5072616;28;20044;-52
2021/07/20 06:36:31;;;;;;;12.85;6.43;;;;;;;;;;5072657;28;20032;-52
2021/07/20 06:38:57;;;;;;;15.10;6.80;;;;;;;;;;5072376;28;20044;-51
2021/07/20 06:41:23;;;;;;;14.10;6.25;;;;;;;;;;5071777;28;20063;-52
2021/07/20 06:43:51;;;;;;;16.05;6.65;;;;;;;;;;5071856;28;20311;-52
2021/07/20 06:46:22;;;;;;;14.25;6.78;;;;;;;;;;5072347;28;20439;-53
2021/07/20 06:48:48;;;;;;;19.95;6.78;;;;;;;;;;5072621;28;20024;-52
2021/07/20 06:51:14;;;;;;;19.25;6.82;;;;;;;;;;5071872;28;20055;-52
2021/07/20 06:53:40;;;;;;;14.10;6.57;;;;;;;;;;5071463;28;20020;-52
2021/07/20 06:56:08;;;;;;;12.95;7.10;;;;;;;;;;5071347;28;20354;-52
2021/07/20 06:58:34;;;;;;;15.50;6.45;;;;;;;;;;5072749;28;20025;-52
2021/07/20 07:01:01;;;;;;;15.40;6.28;;;;;;;;;;5071322;28;20082;-52
2021/07/20 07:03:30;;;;;;;11.85;5.72;;;;;;;;;;5073514;28;20047;-52
2021/07/20 07:05:57;;;;;;;13.63;6.07;;;;;;;;;;5075662;28;20031;-52
2021/07/20 07:08:24;;;;;;;16.63;6.88;;;;;;;;;;5075776;28;20028;-52
2021/07/20 07:10:51;;;;;;;13.65;6.45;;;;;;;;;;5075374;28;20029;-52
2021/07/20 07:13:18;;;;;;;17.52;6.78;;;;;;;;;;5075864;28;20063;-52
2021/07/20 07:15:44;;;;;;;16.10;7.10;;;;;;;;;;5075566;28;20021;-52
2021/07/20 07:18:10;;;;;;;17.50;6.75;;;;;;;;;;5075607;28;20021;-52
2021/07/20 07:20:38;;;;;;;21.27;7.07;;;;;;;;;;5075074;28;20484;-51
2021/07/20 07:23:04;;;;;;;17.90;7.20;;;;;;;;;;5075272;28;20425;-51
2021/07/20 07:25:31;;;;;;;13.15;6.82;;;;;;;;;;5075980;28;20341;-52
2021/07/20 07:27:57;;;;;;;13.77;6.35;;;;;;;;;;5075587;28;20033;-52
2021/07/20 07:30:24;;;;;;;14.95;6.20;;;;;;;;;;5075670;28;20032;-51
2021/07/20 07:32:50;;;;;;;22.63;6.85;;;;;;;;;;5074560;28;20112;-51
2021/07/20 07:35:16;;;;;;;17.35;7.43;;;;;;;;;;5075312;28;20028;-51
2021/07/20 07:37:43;;;;;;;18.20;7.13;;;;;;;;;;5074996;28;20024;-52
2021/07/20 07:40:10;;;;;;;18.83;7.50;;;;;;;;;;5075047;28;20071;-51
2021/07/20 07:42:38;;;;;;;15.10;5.32;;;;;;;;;;5074149;28;20031;-52
2021/07/20 07:45:05;;;;;;;15.95;6.93;;;;;;;;;;5075069;28;20039;-52
2021/07/20 07:47:31;;;;;;;20.60;7.28;;;;;;;;;;5075169;28;20452;-52
2021/07/20 07:49:57;;;;;;;17.00;7.60;;;;;;;;;;5085968;28;20021;-51
2021/07/20 07:52:24;;;;;;;12.90;6.72;;;;;;;;;;5092472;28;20024;-52
2021/07/20 07:54:50;;;;;;;18.25;6.90;;;;;;;;;;5095665;28;20012;-52
2021/07/20 07:57:17;;;;;;;20.58;6.90;;;;;;;;;;5095235;28;20024;-52
2021/07/20 07:59:43;;;;;;;20.92;7.20;;;;;;;;;;5095171;28;20464;-52
2021/07/20 08:02:11;;;;;;;15.27;6.85;;;;;;;;;;5094551;28;20034;-52
2021/07/20 08:04:39;;;;;;;14.13;7.60;;;;;;;;;;5093375;28;20027;-52
2021/07/20 08:07:05;;;;;;;16.48;7.25;;;;;;;;;;5094450;28;20028;-52
2021/07/20 08:09:32;;;;;;;12.60;6.82;;;;;;;;;;5095367;28;20081;-52
2021/07/20 08:12:00;;;;;;;13.52;6.53;;;;;;;;;;5094322;28;20024;-52
2021/07/20 08:14:26;;;;;;;14.68;7.13;;;;;;;;;;5093723;28;20023;-52
2021/07/20 08:16:55;;;;;;;15.57;6.53;;;;;;;;;;5094988;28;20032;-52
2021/07/20 08:19:21;;;;;;;14.60;7.10;;;;;;;;;;5095010;28;20116;-52
2021/07/20 08:21:50;;;;;;;18.33;7.00;;;;;;;;;;5093439;28;20031;-52
2021/07/20 08:24:17;;;;;;;20.02;8.18;;;;;;;;;;5095176;28;20070;-51
2021/07/20 08:26:54;;;;;;;15.15;6.93;;;;;;;;;;5094839;28;20032;-52
2021/07/20 08:29:23;;;;;;;13.75;6.93;;;;;;;;;;5094775;28;20319;-51
2021/07/20 08:32:02;;;;;;;18.15;7.18;;;;;;;;;;5093848;28;20115;-52
2021/07/20 08:34:29;;;;;;;17.83;6.97;;;;;;;;;;5094610;28;20052;-52
2021/07/20 08:36:56;;;;;;;17.33;7.60;;;;;;;;;;5094744;28;20051;-51
2021/07/20 08:39:23;;;;;;;16.90;7.45;;;;;;;;;;5094591;28;20453;-52
2021/07/20 08:42:07;;;;;;;18.58;6.75;;;;;;;;;;5093236;28;20032;-52
2021/07/20 08:44:52;;;;;;;17.20;7.68;;;;;;;;;;5094572;28;20028;-52
2021/07/20 08:47:21;;;;;;;19.60;8.32;;;;;;;;;;5094540;28;20039;-52
2021/07/20 08:49:47;;;;;;;13.95;7.72;;;;;;;;;;5093084;28;20021;-52
2021/07/20 08:52:18;;;;;;;15.00;8.20;;;;;;;;;;5073006;28;20029;-52
2021/07/20 08:55:01;;;;;;;13.15;7.30;;;;;;;;;;5074089;28;20021;-52
2021/07/20 08:57:44;;;;;;;15.75;6.72;;;;;;;;;;5073625;28;20024;-52
2021/07/20 09:00:14;;;;;;;17.55;7.78;;;;;;;;;;5074218;28;20024;-52
2021/07/20 09:02:40;;;;;;;;;;;;;;;;;;5073232;28;20025;-51
2021/07/20 09:05:27;;;;;;;15.98;7.13;;;;;;;;;;5074149;28;19904;-51
2021/07/20 09:07:58;;;;;;;14.35;6.90;;;;;;;;;;5073574;28;20086;-52
2021/07/20 09:10:26;;;;;;;17.27;8.07;;;;;;;;;;5073890;28;20032;-52
2021/07/20 09:12:52;;;;;;;20.00;8.25;;;;;;;;;;5072685;28;20089;-51
2021/07/20 09:15:25;;;;;;;21.08;7.40;;;;;;;;;;5073426;28;20442;-52
2021/07/20 09:18:03;;;;;;;13.23;6.72;;;;;;;;;;5073470;28;20036;-51
2021/07/20 09:20:32;;;;;;;22.50;8.18;;;;;;;;;;5073258;28;20021;-52
2021/07/20 09:23:03;;;;;;;20.77;8.40;;;;;;;;;;5073317;28;20085;-52
2021/07/20 09:25:34;;;;;;;17.60;7.18;;;;;;;;;;5073095;28;20020;-52
2021/07/20 09:28:06;;;;;;;15.85;7.68;;;;;;;;;;5073385;28;20024;-51
2021/07/20 09:30:34;;;;;;;20.65;7.57;;;;;;;;;;5072769;28;20039;-52
2021/07/20 09:33:11;;;;;;;16.42;7.60;;;;;;;;;;5073502;28;20027;-52
2021/07/20 09:35:52;;;;;;;14.75;6.95;;;;;;;;;;5073500;28;20078;-52
2021/07/20 09:38:36;;;;;;;15.43;7.25;;;;;;;;;;5073252;28;20055;-52
2021/07/20 09:41:20;;;;;;;14.48;6.93;;;;;;;;;;5072196;28;20047;-52
2021/07/20 09:43:49;;;;;;;17.38;7.75;;;;;;;;;;5073224;28;20029;-51
2021/07/20 09:46:19;;;;;;;11.32;5.88;;;;;;;;;;5073212;28;20037;-52
2021/07/20 09:48:50;;;;;;;22.50;8.60;;;;;;;;;;5073107;28;20032;-51
2021/07/20 09:51:28;;;;;;;15.52;6.45;;;;;;;;;;5071967;28;20143;-52
2021/07/20 09:53:54;;;;;;;15.65;7.45;;;;;;;;;;5073086;28;20031;-52
2021/07/20 09:56:23;;;;;;;15.57;7.90;;;;;;;;;;5072797;28;20024;-52
2021/07/20 09:58:55;;;;;;;13.75;7.25;;;;;;;;;;5072807;28;20032;-52
2021/07/20 10:01:24;;;;;;;15.15;7.47;;;;;;;;;;5072386;28;20441;-52
2021/07/20 10:03:56;;;;;;;14.15;7.18;;;;;;;;;;5072644;28;20403;-52
2021/07/20 10:06:25;;;;;;;16.58;6.90;;;;;;;;;;5073069;28;20043;-51
2021/07/20 10:08:57;;;;;;;18.55;7.28;;;;;;;;;;5072834;28;20152;-52
2021/07/20 10:11:23;;;;;;;18.50;8.77;;;;;;;;;;5072175;28;20027;-52
2021/07/20 10:13:49;;;;;;;24.92;9.15;;;;;;;;;;5072796;28;20036;-52
2021/07/20 10:16:35;;;;;;;11.57;6.65;;;;;;;;;;5072481;28;20024;-51
2021/07/20 10:19:13;;;;;;;15.80;7.55;;;;;;;;;;5072875;28;20028;-51
2021/07/20 10:21:41;;;;;;;19.42;8.68;;;;;;;;;;5072008;28;20362;-51
2021/07/20 10:24:18;;;;;;;20.17;7.82;;;;;;;;;;5072499;28;20035;-51
2021/07/20 10:27:06;;;;;;;18.27;8.13;;;;;;;;;;5072201;28;20064;-51
2021/07/20 10:29:40;;;;;;;15.10;7.32;;;;;;;;;;5072423;28;20028;-52
2021/07/20 10:32:09;;;;;;;17.38;8.07;;;;;;;;;;5071872;28;20024;-53
2021/07/20 10:34:38;;;;;;;16.70;7.32;;;;;;;;;;5072627;28;20111;-52
2021/07/20 10:37:10;;;;;;;19.75;7.85;;;;;;;;;;5072031;28;20025;-52
2021/07/20 10:39:44;;;;;;;14.65;8.25;;;;;;;;;;5075866;28;20166;-52
2021/07/20 10:42:17;;;;;;;17.63;8.27;;;;;;;;;;5076096;28;20028;-52
2021/07/20 10:44:53;;;;;;;20.38;8.32;;;;;;;;;;5076110;28;20110;-52
2021/07/20 10:47:20;;;;;;;20.92;7.82;;;;;;;;;;5076627;28;20115;-51
2021/07/20 10:49:46;;;;;;;18.23;6.80;;;;;;;;;;5076153;28;20024;-51
2021/07/20 10:52:21;;;;;;;18.38;7.80;;;;;;;;;;5075922;28;20150;-52
2021/07/20 10:55:06;;;;;;;16.63;8.02;;;;;;;;;;5076111;28;20509;-52
2021/07/20 10:57:36;;;;;;;13.25;7.10;;;;;;;;;;5076153;28;20111;-52
2021/07/20 11:00:02;;;;;;;15.07;7.73;;;;;;;;;;5075750;28;20064;-51
2021/07/20 11:02:46;;;;;;;16.33;8.45;;;;;;;;;;5075745;28;20028;-51
2021/07/20 11:05:13;;;;;;;18.90;7.97;;;;;;;;;;5075866;28;20454;-51
2021/07/20 11:07:42;;;;;;;18.73;7.97;;;;;;;;;;5076194;28;20036;-52
2021/07/20 11:10:11;;;;;;;27.02;9.23;;;;;;;;;;5075781;28;20063;-52
2021/07/20 11:12:39;;;;;;;20.25;8.82;;;;;;;;;;5075117;28;20028;-52
2021/07/20 11:15:06;;;;;;;16.95;7.72;;;;;;;;;;5075717;28;20021;-52
2021/07/20 11:17:37;;;;;;;22.35;8.70;;;;;;;;;;5075961;28;20028;-52
2021/07/20 11:20:06;;;;;;;20.55;8.02;;;;;;;;;;5075752;28;20077;-51
2021/07/20 11:22:33;;;;;;;11.13;6.60;;;;;;;;;;5075125;28;20046;-51
2021/07/20 11:24:59;;;;;;;21.33;8.68;;;;;;;;;;5074937;28;20358;-52
2021/07/20 11:27:25;;;;;;;16.35;7.70;;;;;;;;;;5075694;28;20033;-52
2021/07/20 11:29:51;;;;;;;24.38;9.10;;;;;;;;;;5075368;28;20024;-52
2021/07/20 11:32:23;;;;;;;18.92;8.52;;;;;;;;;;5075287;28;20025;-52
2021/07/20 11:35:00;;;;;;;25.75;8.60;;;;;;;;;;5075843;28;20055;-51
2021/07/20 11:37:34;;;;;;;16.08;7.65;;;;;;;;;;5075517;28;20023;-52
2021/07/20 11:40:23;;;;;;;18.23;8.07;;;;;;;;;;5075311;28;20062;-52
2021/07/20 11:42:52;;;;;;;22.43;8.30;;;;;;;;;;5071928;28;20037;-52
2021/07/20 11:45:20;;;;;;;16.52;7.68;;;;;;;;;;5075445;28;20032;-52
2021/07/20 11:48:02;;;;;;;18.27;7.68;;;;;;;;;;5075451;28;20455;-52
2021/07/20 11:50:31;;;;;;;19.65;8.95;;;;;;;;;;5074613;28;20077;-52
2021/07/20 11:53:14;;;;;;;18.65;8.18;;;;;;;;;;5075271;28;20063;-52
2021/07/20 11:55:48;;;;;;;20.95;9.68;;;;;;;;;;5075230;28;20354;-51
2021/07/20 11:58:40;;;;;;;21.98;8.40;;;;;;;;;;5075124;28;20465;-52
2021/07/20 12:01:06;;;;;;;18.00;8.38;;;;;;;;;;5073912;28;20025;-52
2021/07/20 12:03:51;;;;;;;19.60;8.43;;;;;;;;;;5075344;28;20021;-52
2021/07/20 12:06:49;;;;;;;16.90;8.57;;;;;;;;;;5074889;28;20522;-52
2021/07/20 12:09:33;;;;;;;23.10;8.77;;;;;;;;;;5062777;28;20377;-51
2021/07/20 12:12:01;;;;;;;24.38;9.77;;;;;;;;;;5073965;28;20052;-52
2021/07/20 12:14:27;;;;;;;19.80;8.50;;;;;;;;;;5074685;28;20434;-52
2021/07/20 12:16:54;;;;;;;21.77;9.68;;;;;;;;;;5075064;28;20409;-51
2021/07/20 12:19:26;;;;;;;21.50;9.55;;;;;;;;;;5074686;28;20033;-52
2021/07/20 12:21:52;;;;;;;22.80;9.13;;;;;;;;;;5073489;28;20036;-52
2021/07/20 12:24:21;;;;;;;23.90;9.15;;;;;;;;;;5074697;28;20025;-52
2021/07/20 12:26:48;;;;;;;22.25;9.45;;;;;;;;;;5074548;28;20044;-52
2021/07/20 12:29:15;;;;;;;19.50;9.07;;;;;;;;;;5074870;28;20281;-52
2021/07/20 12:31:41;;;;;;;23.02;8.55;;;;;;;;;;5073906;28;20029;-52
2021/07/20 12:34:08;;;;;;;23.83;10.20;;;;;;;;;;5074320;28;20115;-52
2021/07/20 12:36:37;;;;;;;21.88;10.23;;;;;;;;;;5074318;28;20107;-52
2021/07/20 12:39:12;;;;;;;19.40;8.68;;;;;;;;;;5074410;28;20152;-51
2021/07/20 12:41:41;;;;;;;20.98;9.40;;;;;;;;;;5073393;28;20032;-52
2021/07/20 12:44:07;;;;;;;20.95;8.63;;;;;;;;;;5073837;28;20025;-52
2021/07/20 12:46:39;;;;;;;20.88;9.02;;;;;;;;;;5073624;28;20041;-52
2021/07/20 12:49:05;;;;;;;21.25;9.80;;;;;;;;;;5074184;28;20446;-52
2021/07/20 12:51:32;;;;;;;21.92;8.45;;;;;;;;;;5073353;28;20040;-51
2021/07/20 12:53:58;;;;;;;20.10;9.35;;;;;;;;;;5074253;28;20097;-52
2021/07/20 12:56:25;;;;;;;25.80;9.75;;;;;;;;;;5073906;28;20103;-52
2021/07/20 12:58:58;;;;;;;24.52;9.52;;;;;;;;;;5073420;28;20025;-52
2021/07/20 13:01:26;;;;;;;20.90;9.30;;;;;;;;;;5072207;28;20365;-52
2021/07/20 13:03:52;;;;;;;20.67;8.77;;;;;;;;;;5073933;28;20039;-52
2021/07/20 13:06:18;;;;;;;20.42;9.55;;;;;;;;;;5073742;28;20020;-52
2021/07/20 13:08:46;;;;;;;27.63;9.70;;;;;;;;;;5073807;28;20021;-51
2021/07/20 13:11:12;;;;;;;16.92;8.35;;;;;;;;;;5073080;28;20059;-52
2021/07/20 13:13:39;;;;;;;25.00;9.63;;;;;;;;;;5073709;28;20033;-52
2021/07/20 13:16:05;;;;;;;20.88;9.35;;;;;;;;;;5073819;28;20024;-51
2021/07/20 13:18:33;;;;;;;22.85;9.73;;;;;;;;;;5073433;28;20331;-52
2021/07/20 13:21:00;;;;;;;20.00;8.95;;;;;;;;;;5072891;28;20033;-52
2021/07/20 13:23:27;;;;;;;28.85;10.27;;;;;;;;;;5073627;28;20021;-51
2021/07/20 13:25:54;;;;;;;22.02;9.18;;;;;;;;;;5072907;28;20028;-51
2021/07/20 13:28:23;;;;;;;18.48;9.18;;;;;;;;;;5073387;28;20434;-52
2021/07/20 13:31:03;;;;;;;20.33;9.05;;;;;;;;;;5072388;28;20036;-51
2021/07/20 13:33:29;;;;;;;23.52;10.55;;;;;;;;;;5073714;28;20016;-51
2021/07/20 13:35:55;;;;;;;25.65;10.15;;;;;;;;;;5073175;28;20032;-52
2021/07/20 13:38:31;;;;;;;20.52;8.98;;;;;;;;;;5072990;28;20442;-51
2021/07/20 13:40:58;;;;;;;19.63;8.85;;;;;;;;;;5072143;28;20474;-52
2021/07/20 13:43:25;;;;;;;18.15;8.98;;;;;;;;;;5073582;28;20025;-52
2021/07/20 13:45:51;;;;;;;21.88;9.93;;;;;;;;;;5073093;28;20020;-52
2021/07/20 13:48:18;;;;;;;22.88;10.32;;;;;;;;;;5073084;28;20079;-52
2021/07/20 13:50:46;;;;;;;31.55;9.32;;;;;;;;;;5076870;28;20031;-52
2021/07/20 13:53:14;;;;;;;22.00;9.23;;;;;;;;;;5092642;28;20028;-52
2021/07/20 13:55:46;;;;;;;22.08;8.95;;;;;;;;;;5073061;28;20081;-52
2021/07/20 13:58:16;;;;;;;19.42;9.02;;;;;;;;;;5079155;28;20031;-52
2021/07/20 14:00:43;;;;;;;19.90;8.85;;;;;;;;;;5092530;28;20028;-52
2021/07/20 14:03:10;;;;;;;20.23;9.65;;;;;;;;;;5093295;28;20032;-51
2021/07/20 14:05:36;;;;;;;26.75;9.63;;;;;;;;;;5092890;28;20343;-52
2021/07/20 14:08:02;;;;;;;22.63;9.23;;;;;;;;;;5093047;28;20445;-52
2021/07/20 14:10:28;;;;;;;22.60;9.35;;;;;;;;;;5092964;28;20103;-52
2021/07/20 14:12:55;;;;;;;23.63;8.98;;;;;;;;;;5092287;28;20484;-52
2021/07/20 14:15:27;;;;;;;22.08;9.93;;;;;;;;;;5092275;28;20036;-52
2021/07/20 14:17:54;;;;;;;21.95;8.98;;;;;;;;;;5092947;28;20020;-51
2021/07/20 14:20:20;;;;;;;24.98;10.20;;;;;;;;;;5092958;28;20024;-52
2021/07/20 14:22:46;;;;;;;19.98;9.00;;;;;;;;;;5092179;28;20407;-52
2021/07/20 14:25:12;;;;;;;22.25;8.00;;;;;;;;;;5091613;28;20032;-52
2021/07/20 14:27:38;;;;;;;17.25;7.82;;;;;;;;;;5092985;28;20032;-52
2021/07/20 14:30:12;;;;;;;17.77;8.73;;;;;;;;;;5093021;28;20128;-51
2021/07/20 14:32:38;;;;;;;19.98;8.40;;;;;;;;;;5092308;28;20111;-52
2021/07/20 14:35:05;;;;;;;19.05;7.90;;;;;;;;;;5092501;28;20469;-52
2021/07/20 14:37:41;;;;;;;17.55;8.63;;;;;;;;;;5092582;28;20047;-52
2021/07/20 14:40:11;;;;;;;21.58;9.55;;;;;;;;;;5092609;28;20350;-52
2021/07/20 14:42:37;;;;;;;21.35;9.02;;;;;;;;;;5091640;28;20410;-51